createdAt,value
2018-09-04T00:01:46.930Z,15.30
2018-09-04T00:04:15.405Z,15.20
2018-09-04T00:06:43.856Z,15.20
2018-09-04T00:09:12.321Z,15.20
2018-09-04T00:11:40.754Z,15.20
2018-09-04T00:14:09.583Z,15.20
2018-09-04T00:16:38.034Z,15.20
2018-09-04T00:19:06.505Z,15.20
2018-09-04T00:21:34.939Z,15.30
2018-09-04T00:24:03.422Z,15.30
2018-09-04T00:26:31.851Z,15.30
2018-09-04T00:29:00.301Z,15.30
2018-09-04T00:31:28.742Z,15.30
2018-09-04T00:33:57.257Z,15.30
2018-09-04T00:36:25.694Z,15.20
2018-09-04T00:38:54.145Z,15.20
2018-09-04T00:41:22.577Z,15.20
2018-09-04T00:43:51.048Z,15.20
2018-09-04T00:46:19.489Z,15.10
2018-09-04T00:48:47.954Z,15.10
2018-09-04T00:51:16.449Z,15.10
2018-09-04T00:53:44.962Z,15.10
2018-09-04T00:56:13.398Z,15.10
2018-09-04T00:58:41.863Z,15.10
2018-09-04T01:01:10.309Z,15.10
2018-09-04T01:03:38.765Z,15.10
2018-09-04T01:06:07.258Z,15.10
2018-09-04T01:08:35.705Z,15.10
2018-09-04T01:11:04.173Z,15.00
2018-09-04T01:13:32.665Z,14.90
2018-09-04T01:16:01.114Z,14.90
2018-09-04T01:18:29.561Z,14.80
2018-09-04T01:20:58.027Z,14.80
2018-09-04T01:23:26.470Z,14.80
2018-09-04T01:25:54.923Z,14.70
2018-09-04T01:28:23.378Z,14.70
2018-09-04T01:30:51.808Z,14.60
2018-09-04T01:33:20.263Z,14.60
2018-09-04T01:35:48.685Z,14.50
2018-09-04T01:38:17.135Z,14.40
2018-09-04T01:40:45.570Z,14.40
2018-09-04T01:43:14.021Z,14.40
2018-09-04T01:45:42.865Z,14.40
2018-09-04T01:48:11.454Z,14.30
2018-09-04T01:50:39.957Z,14.30
2018-09-04T01:53:08.414Z,14.30
2018-09-04T01:55:36.878Z,14.30
2018-09-04T01:58:05.652Z,14.20
2018-09-04T02:00:34.120Z,14.20
2018-09-04T02:03:02.584Z,14.20
2018-09-04T02:05:31.120Z,14.10
2018-09-04T02:07:59.580Z,14.10
2018-09-04T02:10:28.045Z,14.10
2018-09-04T02:12:56.490Z,14.10
2018-09-04T02:15:25.010Z,14.10
2018-09-04T02:17:53.453Z,14.10
2018-09-04T02:20:22.033Z,14.10
2018-09-04T02:22:50.537Z,14.00
2018-09-04T02:25:19.014Z,14.10
2018-09-04T02:27:47.450Z,14.10
2018-09-04T02:30:15.933Z,14.10
2018-09-04T02:32:44.402Z,14.10
2018-09-04T02:35:12.862Z,14.20
2018-09-04T02:37:41.301Z,14.20
2018-09-04T02:40:09.788Z,14.20
2018-09-04T02:42:38.237Z,14.20
2018-09-04T02:45:06.783Z,14.20
2018-09-04T02:47:35.246Z,14.20
2018-09-04T02:50:03.757Z,14.20
2018-09-04T02:52:32.211Z,14.30
2018-09-04T02:55:00.685Z,14.30
2018-09-04T02:57:29.133Z,14.30
2018-09-04T02:59:57.615Z,14.30
2018-09-04T03:02:26.055Z,14.40
2018-09-04T03:04:54.545Z,14.40
2018-09-04T03:07:23.022Z,14.40
2018-09-04T03:09:52.334Z,14.40
2018-09-04T03:12:20.865Z,14.30
2018-09-04T03:14:49.310Z,14.30
2018-09-04T03:17:17.752Z,14.20
2018-09-04T03:19:46.214Z,14.20
2018-09-04T03:22:14.661Z,14.20
2018-09-04T03:24:43.137Z,14.20
2018-09-04T03:27:11.577Z,14.10
2018-09-04T03:29:40.047Z,14.10
2018-09-04T03:32:08.497Z,14.10
2018-09-04T03:34:37.034Z,14.00
2018-09-04T03:37:05.566Z,14.10
2018-09-04T03:39:34.038Z,14.10
2018-09-04T03:42:02.515Z,14.10
2018-09-04T03:44:31.030Z,14.10
2018-09-04T03:46:59.446Z,14.10
2018-09-04T03:49:27.921Z,14.00
2018-09-04T03:51:56.373Z,14.10
2018-09-04T03:54:24.853Z,14.10
2018-09-04T03:56:53.301Z,14.20
2018-09-04T03:59:21.770Z,14.20
2018-09-04T04:01:50.215Z,14.10
2018-09-04T04:04:18.694Z,14.10
2018-09-04T04:06:47.153Z,14.10
2018-09-04T04:09:15.629Z,14.10
2018-09-04T04:11:44.090Z,14.10
2018-09-04T04:14:12.533Z,14.00
2018-09-04T04:16:41.014Z,14.00
2018-09-04T04:19:09.463Z,14.00
2018-09-04T04:21:37.933Z,14.00
2018-09-04T04:24:06.389Z,14.00
2018-09-04T04:26:34.870Z,14.00
2018-09-04T04:29:03.413Z,14.00
2018-09-04T04:31:31.890Z,14.00
2018-09-04T04:34:00.342Z,14.00
2018-09-04T04:36:28.823Z,13.90
2018-09-04T04:38:57.264Z,14.00
2018-09-04T04:41:25.774Z,13.90
2018-09-04T04:43:54.222Z,14.00
2018-09-04T04:46:22.784Z,13.90
2018-09-04T04:48:51.258Z,14.00
2018-09-04T04:51:19.757Z,14.00
2018-09-04T04:53:48.223Z,14.00
2018-09-04T04:56:16.685Z,14.00
2018-09-04T04:58:45.125Z,14.00
2018-09-04T05:01:13.653Z,14.10
2018-09-04T05:03:42.114Z,14.00
2018-09-04T05:06:10.581Z,14.00
2018-09-04T05:08:39.033Z,14.00
2018-09-04T05:11:07.633Z,14.00
2018-09-04T05:13:35.945Z,14.00
2018-09-04T05:16:04.418Z,14.00
2018-09-04T05:18:32.870Z,14.00
2018-09-04T05:21:01.354Z,14.00
2018-09-04T05:23:29.781Z,14.00
2018-09-04T05:25:58.237Z,14.10
2018-09-04T05:28:26.674Z,14.20
2018-09-04T05:30:55.139Z,14.30
2018-09-04T05:33:33.158Z,14.30
2018-09-04T05:36:01.677Z,14.30
2018-09-04T05:38:30.110Z,14.20
2018-09-04T05:40:58.603Z,14.30
2018-09-04T05:43:29.543Z,14.40
2018-09-04T05:46:00.182Z,14.50
2018-09-04T05:48:28.662Z,14.50
2018-09-04T05:50:57.119Z,14.60
2018-09-04T05:53:25.586Z,14.70
2018-09-04T05:55:54.173Z,14.60
2018-09-04T05:58:22.629Z,14.60
2018-09-04T06:00:55.077Z,14.50
2018-09-04T06:03:23.511Z,14.60
2018-09-04T06:05:52.001Z,14.80
2018-09-04T06:08:20.446Z,14.90
2018-09-04T06:10:48.913Z,14.90
2018-09-04T06:13:17.361Z,14.90
2018-09-04T06:15:45.854Z,14.90
2018-09-04T06:18:14.311Z,14.90
2018-09-04T06:20:42.819Z,15.00
2018-09-04T06:23:11.274Z,15.10
2018-09-04T06:25:39.722Z,15.10
2018-09-04T06:28:08.194Z,15.20
2018-09-04T06:30:36.690Z,15.10
2018-09-04T06:33:05.209Z,15.20
2018-09-04T06:35:33.687Z,15.20
2018-09-04T06:38:02.161Z,15.20
2018-09-04T06:40:30.626Z,15.30
2018-09-04T06:42:59.118Z,15.30
2018-09-04T06:45:27.585Z,15.30
2018-09-04T06:47:56.053Z,15.40
2018-09-04T06:50:24.513Z,15.40
2018-09-04T06:52:53.642Z,15.40
2018-09-04T06:55:22.111Z,15.50
2018-09-04T06:57:50.616Z,15.50
2018-09-04T07:00:19.072Z,15.60
2018-09-04T07:02:47.567Z,15.70
2018-09-04T07:05:16.022Z,15.70
2018-09-04T07:07:44.509Z,15.70
2018-09-04T07:10:12.949Z,15.70
2018-09-04T07:12:41.406Z,15.80
2018-09-04T07:15:09.903Z,15.90
2018-09-04T07:17:38.382Z,16.00
2018-09-04T07:20:06.877Z,16.00
2018-09-04T07:22:35.344Z,16.10
2018-09-04T07:25:03.834Z,16.30
2018-09-04T07:27:32.361Z,16.40
2018-09-04T07:30:00.803Z,16.30
2018-09-04T07:32:29.250Z,16.30
2018-09-04T07:34:57.700Z,16.30
2018-09-04T07:37:26.181Z,16.50
2018-09-04T07:39:54.625Z,16.60
2018-09-04T07:42:23.096Z,16.80
2018-09-04T07:44:51.530Z,16.80
2018-09-04T07:47:19.998Z,16.80
2018-09-04T07:49:48.430Z,16.90
2018-09-04T07:52:16.889Z,16.90
2018-09-04T07:54:45.338Z,17.10
2018-09-04T07:57:13.802Z,17.10
2018-09-04T07:59:42.229Z,17.20
2018-09-04T08:02:10.694Z,17.40
2018-09-04T08:04:39.135Z,17.40
2018-09-04T08:07:07.634Z,17.50
2018-09-04T08:09:36.081Z,17.50
2018-09-04T08:12:04.547Z,17.60
2018-09-04T08:14:33.063Z,17.60
2018-09-04T08:17:01.678Z,17.70
2018-09-04T08:19:30.129Z,17.70
2018-09-04T08:21:58.597Z,17.80
2018-09-04T08:24:27.041Z,17.70
2018-09-04T08:26:55.501Z,17.80
2018-09-04T08:29:23.946Z,18.10
2018-09-04T08:31:52.434Z,18.20
2018-09-04T08:34:20.946Z,18.20
2018-09-04T08:36:49.413Z,18.50
2018-09-04T08:39:17.907Z,18.70
2018-09-04T08:41:46.346Z,19.00
2018-09-04T08:44:14.814Z,18.80
2018-09-04T08:46:43.262Z,18.80
2018-09-04T08:49:11.720Z,18.80
2018-09-04T08:51:40.165Z,18.70
2018-09-04T08:54:08.622Z,18.70
2018-09-04T08:56:37.077Z,18.90
2018-09-04T08:59:05.631Z,19.00
2018-09-04T09:01:34.082Z,19.30
2018-09-04T09:04:02.545Z,19.40
2018-09-04T09:06:30.996Z,19.40
2018-09-04T09:08:59.451Z,19.30
2018-09-04T09:11:27.881Z,19.60
2018-09-04T09:13:56.336Z,20.30
2018-09-04T09:16:24.762Z,20.60
2018-09-04T09:18:53.209Z,21.20
2018-09-04T09:21:21.629Z,21.10
2018-09-04T09:23:50.069Z,20.90
2018-09-04T09:26:18.496Z,20.50
2018-09-04T09:28:46.977Z,20.70
2018-09-04T09:31:15.385Z,21.20
2018-09-04T09:33:43.829Z,21.70
2018-09-04T09:36:12.271Z,21.90
2018-09-04T09:38:40.718Z,22.50
2018-09-04T09:41:09.137Z,22.60
2018-09-04T09:43:37.681Z,23.10
2018-09-04T09:46:06.223Z,23.70
2018-09-04T09:48:40.669Z,24.50
2018-09-04T09:51:09.845Z,24.60
2018-09-04T09:53:38.507Z,24.20
2018-09-04T09:56:07.145Z,24.60
2018-09-04T09:58:35.561Z,23.00
2018-09-04T10:01:09.297Z,22.90
2018-09-04T10:03:43.033Z,24.30
2018-09-04T10:06:11.510Z,24.60
2018-09-04T10:08:39.962Z,24.30
2018-09-04T10:11:08.515Z,25.10
2018-09-04T10:13:36.857Z,25.80
2018-09-04T10:16:05.303Z,25.90
2018-09-04T10:18:33.744Z,25.50
2018-09-04T10:21:02.177Z,25.80
2018-09-04T10:23:30.673Z,25.70
2018-09-04T10:25:59.217Z,25.90
2018-09-04T10:28:27.657Z,25.90
2018-09-04T10:30:56.082Z,25.20
2018-09-04T10:33:24.529Z,25.90
2018-09-04T10:35:52.965Z,27.00
2018-09-04T10:38:24.407Z,29.10
2018-09-04T10:40:54.377Z,30.10
2018-09-04T10:43:23.054Z,29.10
2018-09-04T10:45:56.902Z,29.30
2018-09-04T10:48:26.412Z,28.90
2018-09-04T10:50:54.901Z,27.20
2018-09-04T10:53:23.354Z,26.50
2018-09-04T10:55:51.850Z,26.10
2018-09-04T10:58:20.218Z,26.10
2018-09-04T11:00:48.702Z,26.00
2018-09-04T11:03:17.153Z,25.70
2018-09-04T11:05:45.674Z,25.10
2018-09-04T11:08:14.121Z,25.10
2018-09-04T11:10:42.597Z,24.80
2018-09-04T11:13:11.103Z,25.20
2018-09-04T11:15:39.608Z,27.10
2018-09-04T11:18:08.125Z,27.00
2018-09-04T11:20:36.591Z,27.60
2018-09-04T11:23:05.161Z,28.40
2018-09-04T11:25:33.637Z,28.50
2018-09-04T11:28:02.115Z,28.10
2018-09-04T11:30:30.600Z,28.30
2018-09-04T11:32:59.046Z,28.30
2018-09-04T11:35:27.529Z,29.20
2018-09-04T11:37:55.978Z,29.10
2018-09-04T11:40:24.465Z,29.50
2018-09-04T11:42:52.910Z,29.10
2018-09-04T11:45:21.389Z,29.40
2018-09-04T11:47:49.838Z,29.10
2018-09-04T11:50:18.314Z,28.90
2018-09-04T11:52:46.763Z,29.30
2018-09-04T11:55:15.246Z,29.60
2018-09-04T11:57:43.686Z,28.90
2018-09-04T12:00:21.070Z,27.70
2018-09-04T12:02:49.554Z,27.20
2018-09-04T12:05:18.026Z,27.30
2018-09-04T12:07:46.490Z,27.30
2018-09-04T12:10:14.934Z,27.30
2018-09-04T12:12:43.443Z,27.60
2018-09-04T12:15:11.834Z,27.50
2018-09-04T12:17:40.270Z,27.90
2018-09-04T12:20:15.179Z,28.30
2018-09-04T12:22:43.627Z,28.00
2018-09-04T12:25:12.135Z,27.70
2018-09-04T12:27:40.582Z,28.60
2018-09-04T12:30:09.065Z,28.10
2018-09-04T12:32:37.493Z,28.50
2018-09-04T12:35:06.026Z,28.60
2018-09-04T12:37:34.446Z,28.10
2018-09-04T12:40:02.901Z,28.50
2018-09-04T12:42:31.385Z,30.00
2018-09-04T12:45:00.770Z,28.10
2018-09-04T12:47:29.186Z,27.20
2018-09-04T12:49:57.644Z,27.00
2018-09-04T12:52:26.073Z,27.40
2018-09-04T12:54:54.526Z,27.70
2018-09-04T12:57:22.941Z,27.40
2018-09-04T12:59:51.388Z,27.20
2018-09-04T13:02:19.834Z,26.40
2018-09-04T13:04:48.337Z,25.90
2018-09-04T13:07:16.797Z,26.20
2018-09-04T13:09:45.281Z,26.40
2018-09-04T13:12:13.817Z,25.40
2018-09-04T13:14:42.432Z,25.70
2018-09-04T13:17:10.851Z,26.10
2018-09-04T13:19:39.354Z,27.60
2018-09-04T13:22:07.868Z,27.50
2018-09-04T13:24:36.349Z,27.20
2018-09-04T13:27:04.823Z,27.20
2018-09-04T13:29:33.269Z,28.60
2018-09-04T13:32:01.777Z,28.10
2018-09-04T13:34:30.360Z,29.00
2018-09-04T13:36:58.737Z,30.50
2018-09-04T13:39:27.210Z,30.50
2018-09-04T13:41:55.681Z,29.80
2018-09-04T13:44:24.156Z,31.00
2018-09-04T13:46:52.631Z,32.20
2018-09-04T13:49:21.102Z,34.00
2018-09-04T13:51:49.587Z,32.30
2018-09-04T13:54:18.043Z,32.80
2018-09-04T13:56:46.507Z,32.70
2018-09-04T13:59:14.954Z,34.30
2018-09-04T14:01:43.425Z,34.80
2018-09-04T14:04:11.922Z,33.00
2018-09-04T14:06:40.379Z,32.00
2018-09-04T14:09:09.183Z,33.50
2018-09-04T14:11:37.982Z,32.10
2018-09-04T14:14:06.463Z,29.90
2018-09-04T14:16:43.157Z,29.10
2018-09-04T14:19:03.383Z,28.60
2018-09-04T14:21:31.833Z,29.10
2018-09-04T14:24:00.267Z,29.60
2018-09-04T14:26:28.737Z,29.40
2018-09-04T14:29:08.607Z,29.40
2018-09-04T14:31:25.666Z,29.70
2018-09-04T14:33:54.098Z,29.40
2018-09-04T14:36:22.567Z,29.70
2018-09-04T14:38:50.961Z,29.50
2018-09-04T14:41:19.409Z,28.70
2018-09-04T14:43:47.825Z,27.90
2018-09-04T14:46:16.273Z,27.40
2018-09-04T14:48:44.757Z,26.70
2018-09-04T14:51:13.211Z,26.30
2018-09-04T14:53:41.701Z,25.80
2018-09-04T14:56:10.136Z,25.40
2018-09-04T14:58:38.585Z,25.00
2018-09-04T15:01:07.047Z,24.60
2018-09-04T15:03:35.526Z,24.90
2018-09-04T15:06:04.085Z,25.40
2018-09-04T15:08:32.572Z,25.60
2018-09-04T15:11:00.971Z,26.00
2018-09-04T15:13:29.425Z,26.50
2018-09-04T15:15:57.984Z,26.20
2018-09-04T15:18:26.385Z,27.20
2018-09-04T15:20:54.845Z,28.00
2018-09-04T15:23:23.303Z,28.20
2018-09-04T15:25:51.801Z,28.20
2018-09-04T15:28:20.270Z,28.60
2018-09-04T15:30:48.705Z,27.90
2018-09-04T15:33:17.188Z,26.80
2018-09-04T15:35:45.634Z,26.10
2018-09-04T15:38:14.136Z,25.40
2018-09-04T15:40:42.604Z,25.00
2018-09-04T15:43:11.085Z,25.00
2018-09-04T15:45:39.542Z,25.00
2018-09-04T15:48:08.019Z,24.90
2018-09-04T15:50:36.464Z,24.80
2018-09-04T15:53:04.934Z,24.60
2018-09-04T15:55:33.386Z,24.50
2018-09-04T15:58:01.862Z,24.50
2018-09-04T16:00:30.306Z,24.60
2018-09-04T16:02:58.791Z,24.70
2018-09-04T16:05:27.302Z,24.70
2018-09-04T16:07:55.865Z,24.70
2018-09-04T16:10:24.319Z,24.70
2018-09-04T16:12:52.791Z,24.80
2018-09-04T16:15:21.229Z,25.00
2018-09-04T16:17:49.727Z,24.90
2018-09-04T16:20:18.210Z,25.10
2018-09-04T16:22:46.682Z,25.10
2018-09-04T16:25:15.157Z,25.00
2018-09-04T16:27:43.657Z,24.80
2018-09-04T16:30:12.122Z,24.80
2018-09-04T16:32:40.551Z,24.80
2018-09-04T16:35:09.033Z,24.70
2018-09-04T16:37:37.490Z,24.70
2018-09-04T16:40:05.997Z,24.70
2018-09-04T16:42:34.441Z,24.70
2018-09-04T16:45:02.906Z,24.60
2018-09-04T16:47:31.343Z,24.50
2018-09-04T16:49:59.793Z,24.50
2018-09-04T16:52:28.249Z,24.50
2018-09-04T16:54:56.794Z,24.50
2018-09-04T16:57:25.320Z,24.60
2018-09-04T16:59:53.766Z,24.50
2018-09-04T17:02:22.274Z,24.50
2018-09-04T17:04:50.733Z,24.40
2018-09-04T17:07:19.203Z,24.30
2018-09-04T17:09:47.648Z,24.20
2018-09-04T17:12:16.085Z,24.00
2018-09-04T17:14:44.569Z,23.90
2018-09-04T17:17:13.037Z,23.70
2018-09-04T17:19:41.478Z,23.50
2018-09-04T17:22:09.898Z,23.30
2018-09-04T17:24:38.341Z,23.20
2018-09-04T17:27:06.780Z,23.00
2018-09-04T17:29:35.228Z,22.80
2018-09-04T17:32:03.758Z,22.60
2018-09-04T17:34:32.177Z,22.50
2018-09-04T17:37:00.617Z,22.40
2018-09-04T17:39:29.061Z,22.30
2018-09-04T17:41:57.491Z,22.10
2018-09-04T17:44:25.942Z,22.00
2018-09-04T17:46:54.396Z,21.90
2018-09-04T17:49:22.854Z,21.80
2018-09-04T17:51:51.338Z,21.70
2018-09-04T17:54:19.805Z,21.50
2018-09-04T17:56:48.256Z,21.40
2018-09-04T17:59:23.836Z,21.40
2018-09-04T18:01:52.357Z,21.30
2018-09-04T18:04:20.826Z,21.30
2018-09-04T18:06:49.278Z,21.20
2018-09-04T18:09:17.739Z,21.10
2018-09-04T18:11:46.158Z,21.00
2018-09-04T18:14:14.590Z,20.90
2018-09-04T18:16:43.042Z,20.90
2018-09-04T18:19:11.498Z,20.90
2018-09-04T18:21:40.014Z,20.80
2018-09-04T18:24:08.458Z,20.70
2018-09-04T18:26:36.933Z,20.50
2018-09-04T18:29:05.407Z,20.50
2018-09-04T18:31:33.850Z,20.50
2018-09-04T18:34:02.262Z,20.40
2018-09-04T18:36:30.749Z,20.30
2018-09-04T18:38:59.210Z,20.30
2018-09-04T18:41:27.657Z,20.20
2018-09-04T18:43:56.081Z,20.10
2018-09-04T18:46:24.530Z,20.10
2018-09-04T18:48:55.288Z,20.00
2018-09-04T18:51:24.221Z,19.90
2018-09-04T18:53:52.645Z,19.90
2018-09-04T18:56:21.086Z,19.80
2018-09-04T18:58:49.525Z,19.80
2018-09-04T19:01:21.856Z,19.70
2018-09-04T19:03:50.354Z,19.60
2018-09-04T19:06:18.833Z,19.60
2018-09-04T19:08:47.285Z,19.50
2018-09-04T19:11:15.758Z,19.40
2018-09-04T19:13:44.197Z,19.40
2018-09-04T19:16:12.682Z,19.40
2018-09-04T19:18:41.133Z,19.40
2018-09-04T19:21:09.617Z,19.40
2018-09-04T19:23:38.050Z,19.40
2018-09-04T19:26:06.521Z,19.40
2018-09-04T19:28:34.956Z,19.30
2018-09-04T19:31:03.424Z,19.30
2018-09-04T19:33:31.870Z,19.30
2018-09-04T19:36:00.337Z,19.30
2018-09-04T19:38:28.777Z,19.30
2018-09-04T19:40:57.253Z,19.30
2018-09-04T19:43:25.679Z,19.20
2018-09-04T19:45:54.133Z,19.20
2018-09-04T19:48:22.564Z,19.20
2018-09-04T19:50:51.138Z,19.10
2018-09-04T19:53:19.566Z,19.10
2018-09-04T19:55:48.026Z,19.10
2018-09-04T19:58:16.459Z,19.10
2018-09-04T20:00:44.943Z,19.20
2018-09-04T20:03:13.398Z,19.20
2018-09-04T20:05:41.848Z,19.20
2018-09-04T20:08:10.314Z,19.10
2018-09-04T20:10:38.769Z,19.10
2018-09-04T20:13:07.246Z,19.10
2018-09-04T20:15:35.686Z,19.10
2018-09-04T20:18:04.150Z,19.10
2018-09-04T20:20:32.606Z,19.00
2018-09-04T20:23:01.083Z,18.90
2018-09-04T20:25:29.614Z,18.90
2018-09-04T20:27:58.074Z,18.90
2018-09-04T20:30:26.509Z,18.90
2018-09-04T20:32:54.970Z,18.80
2018-09-04T20:35:23.397Z,18.80
2018-09-04T20:37:51.862Z,18.80
2018-09-04T20:40:20.306Z,18.80
2018-09-04T20:42:48.772Z,18.70
2018-09-04T20:45:17.204Z,18.70
2018-09-04T20:47:45.658Z,18.70
2018-09-04T20:50:14.093Z,18.60
2018-09-04T20:52:42.569Z,18.70
2018-09-04T20:55:11.014Z,18.70
2018-09-04T20:57:40.527Z,18.70
2018-09-04T21:00:23.022Z,18.70
2018-09-04T21:03:02.794Z,18.70
2018-09-04T21:05:42.376Z,18.70
2018-09-04T21:08:24.324Z,18.70
2018-09-04T21:10:53.693Z,18.70
2018-09-04T21:13:22.122Z,18.70
2018-09-04T21:15:50.576Z,18.70
2018-09-04T21:18:19.002Z,18.60
2018-09-04T21:20:47.407Z,18.60
2018-09-04T21:23:16.445Z,18.50
2018-09-04T21:25:44.884Z,18.50
2018-09-04T21:28:13.321Z,18.40
2018-09-04T21:30:41.744Z,18.40
2018-09-04T21:33:10.233Z,18.40
2018-09-04T21:35:38.665Z,18.40
2018-09-04T21:38:07.165Z,18.30
2018-09-04T21:40:35.589Z,18.20
2018-09-04T21:43:04.033Z,18.20
2018-09-04T21:45:32.444Z,18.20
2018-09-04T21:48:00.892Z,18.20
2018-09-04T21:50:29.297Z,18.20
2018-09-04T21:52:57.754Z,18.20
2018-09-04T21:55:26.185Z,18.20
2018-09-04T21:57:54.618Z,18.20
2018-09-04T22:00:25.388Z,18.20
2018-09-04T22:02:54.435Z,18.10
2018-09-04T22:05:23.966Z,18.10
2018-09-04T22:07:52.923Z,18.10
2018-09-04T22:10:21.332Z,18.10
2018-09-04T22:12:49.773Z,18.00
2018-09-04T22:15:18.206Z,18.00
2018-09-04T22:17:46.701Z,17.90
2018-09-04T22:20:15.125Z,17.90
2018-09-04T22:22:43.581Z,17.90
2018-09-04T22:25:12.030Z,17.90
2018-09-04T22:27:40.469Z,17.80
2018-09-04T22:30:08.949Z,17.70
2018-09-04T22:32:37.425Z,17.60
2018-09-04T22:35:05.945Z,17.60
2018-09-04T22:37:34.398Z,17.50
2018-09-04T22:40:02.823Z,17.40
2018-09-04T22:42:31.269Z,17.30
2018-09-04T22:44:59.701Z,17.30
2018-09-04T22:47:28.145Z,17.30
2018-09-04T22:50:01.938Z,17.30
2018-09-04T22:52:31.443Z,17.30
2018-09-04T22:55:01.949Z,17.20
2018-09-04T22:57:30.750Z,17.20
2018-09-04T22:59:59.225Z,17.20
2018-09-04T23:02:27.819Z,17.10
2018-09-04T23:04:56.457Z,17.10
2018-09-04T23:07:24.947Z,17.00
2018-09-04T23:09:53.389Z,17.00
2018-09-04T23:12:21.826Z,17.00
2018-09-04T23:14:50.314Z,16.90
2018-09-04T23:17:18.775Z,16.90
2018-09-04T23:19:47.301Z,16.80
2018-09-04T23:22:15.762Z,16.80
2018-09-04T23:24:44.201Z,16.70
2018-09-04T23:27:12.629Z,16.70
2018-09-04T23:29:41.090Z,16.70
2018-09-04T23:32:09.524Z,16.60
2018-09-04T23:34:38.482Z,16.60
2018-09-04T23:37:06.929Z,16.60
2018-09-04T23:39:35.425Z,16.50
2018-09-04T23:42:03.857Z,16.50
2018-09-04T23:44:32.321Z,16.50
2018-09-04T23:47:00.933Z,16.50
2018-09-04T23:49:29.445Z,16.40
2018-09-04T23:51:57.869Z,16.30
2018-09-04T23:54:26.722Z,16.30
2018-09-04T23:56:55.257Z,16.30
2018-09-04T23:59:23.726Z,16.20
